sensor_id;sensor_type;location;lat;lon;timestamp;temperature;humidity
8792;DHT22;4432;50.890;4.744;2023-04-25T00:01:20;8.30;99.90
8792;DHT22;4432;50.890;4.744;2023-04-25T00:03:47;8.20;99.90
8792;DHT22;4432;50.890;4.744;2023-04-25T00:06:13;8.20;99.90
8792;DHT22;4432;50.890;4.744;2023-04-25T00:08:39;8.20;99.90
8792;DHT22;4432;50.890;4.744;2023-04-25T00:11:05;8.20;99.90
8792;DHT22;4432;50.890;4.744;2023-04-25T00:13:32;8.10;99.90
8792;DHT22;4432;50.890;4.744;2023-04-25T00:15:58;8.10;99.90
8792;DHT22;4432;50.890;4.744;2023-04-25T00:18:24;8.10;99.90
8792;DHT22;4432;50.890;4.744;2023-04-25T00:20:50;8.10;99.90
8792;DHT22;4432;50.890;4.744;2023-04-25T00:23:16;8.10;99.90
8792;DHT22;4432;50.890;4.744;2023-04-25T00:25:45;8.10;99.90
8792;DHT22;4432;50.890;4.744;2023-04-25T00:28:12;8.10;99.90
8792;DHT22;4432;50.890;4.744;2023-04-25T00:30:39;8.10;99.90
8792;DHT22;4432;50.890;4.744;2023-04-25T00:33:05;8.10;99.90
8792;DHT22;4432;50.890;4.744;2023-04-25T00:35:31;8.20;99.90
8792;DHT22;4432;50.890;4.744;2023-04-25T00:37:57;8.20;99.90
8792;DHT22;4432;50.890;4.744;2023-04-25T00:40:22;8.20;99.90
8792;DHT22;4432;50.890;4.744;2023-04-25T00:42:49;8.30;99.90
8792;DHT22;4432;50.890;4.744;2023-04-25T00:45:17;8.20;99.90
8792;DHT22;4432;50.890;4.744;2023-04-25T00:47:44;8.10;99.90
8792;DHT22;4432;50.890;4.744;2023-04-25T00:50:10;8.10;99.90
8792;DHT22;4432;50.890;4.744;2023-04-25T00:52:39;8.00;99.90
8792;DHT22;4432;50.890;4.744;2023-04-25T00:55:06;8.00;99.90
8792;DHT22;4432;50.890;4.744;2023-04-25T00:57:33;8.00;99.90
8792;DHT22;4432;50.890;4.744;2023-04-25T00:59:59;8.00;99.90
8792;DHT22;4432;50.890;4.744;2023-04-25T01:02:25;7.90;99.90
8792;DHT22;4432;50.890;4.744;2023-04-25T01:04:52;8.00;99.90
8792;DHT22;4432;50.890;4.744;2023-04-25T01:07:18;8.00;99.90
8792;DHT22;4432;50.890;4.744;2023-04-25T01:09:45;8.00;99.90
8792;DHT22;4432;50.890;4.744;2023-04-25T01:12:11;8.00;99.90
8792;DHT22;4432;50.890;4.744;2023-04-25T01:14:38;7.90;99.90
8792;DHT22;4432;50.890;4.744;2023-04-25T01:17:04;7.90;99.90
8792;DHT22;4432;50.890;4.744;2023-04-25T01:19:29;7.90;99.90
8792;DHT22;4432;50.890;4.744;2023-04-25T01:21:56;8.00;99.90
8792;DHT22;4432;50.890;4.744;2023-04-25T01:24:22;8.00;99.90
8792;DHT22;4432;50.890;4.744;2023-04-25T01:26:48;7.90;99.90
8792;DHT22;4432;50.890;4.744;2023-04-25T01:29:20;7.90;99.90
8792;DHT22;4432;50.890;4.744;2023-04-25T01:31:46;8.00;99.90
8792;DHT22;4432;50.890;4.744;2023-04-25T01:34:12;7.90;99.90
8792;DHT22;4432;50.890;4.744;2023-04-25T01:36:39;7.90;99.90
8792;DHT22;4432;50.890;4.744;2023-04-25T01:39:04;7.90;99.90
8792;DHT22;4432;50.890;4.744;2023-04-25T01:41:31;7.90;99.90
8792;DHT22;4432;50.890;4.744;2023-04-25T01:43:57;7.80;99.90
8792;DHT22;4432;50.890;4.744;2023-04-25T01:46:23;7.80;99.90
8792;DHT22;4432;50.890;4.744;2023-04-25T01:48:48;7.90;99.90
8792;DHT22;4432;50.890;4.744;2023-04-25T01:51:15;7.90;99.90
8792;DHT22;4432;50.890;4.744;2023-04-25T01:53:41;7.90;99.90
8792;DHT22;4432;50.890;4.744;2023-04-25T01:56:07;7.80;99.90
8792;DHT22;4432;50.890;4.744;2023-04-25T01:58:33;7.80;99.90
8792;DHT22;4432;50.890;4.744;2023-04-25T02:00:59;7.70;99.90
8792;DHT22;4432;50.890;4.744;2023-04-25T02:03:25;7.70;99.90
8792;DHT22;4432;50.890;4.744;2023-04-25T02:05:51;7.70;99.90
8792;DHT22;4432;50.890;4.744;2023-04-25T02:08:17;7.70;99.90
8792;DHT22;4432;50.890;4.744;2023-04-25T02:10:43;7.70;99.90
8792;DHT22;4432;50.890;4.744;2023-04-25T02:13:09;7.80;99.90
8792;DHT22;4432;50.890;4.744;2023-04-25T02:15:35;7.80;99.90
8792;DHT22;4432;50.890;4.744;2023-04-25T02:18:01;7.80;99.90
8792;DHT22;4432;50.890;4.744;2023-04-25T02:20:28;7.80;99.90
8792;DHT22;4432;50.890;4.744;2023-04-25T02:22:55;7.80;99.90
8792;DHT22;4432;50.890;4.744;2023-04-25T02:25:21;7.70;99.90
8792;DHT22;4432;50.890;4.744;2023-04-25T02:27:47;7.70;99.90
8792;DHT22;4432;50.890;4.744;2023-04-25T02:30:13;7.80;99.90
8792;DHT22;4432;50.890;4.744;2023-04-25T02:32:40;7.70;99.90
8792;DHT22;4432;50.890;4.744;2023-04-25T02:35:06;7.70;99.90
8792;DHT22;4432;50.890;4.744;2023-04-25T02:37:33;7.70;99.90
8792;DHT22;4432;50.890;4.744;2023-04-25T02:40:00;7.70;99.90
8792;DHT22;4432;50.890;4.744;2023-04-25T02:42:26;7.70;99.90
8792;DHT22;4432;50.890;4.744;2023-04-25T02:44:52;7.70;99.90
8792;DHT22;4432;50.890;4.744;2023-04-25T02:47:18;7.70;99.90
8792;DHT22;4432;50.890;4.744;2023-04-25T02:49:44;7.70;99.90
8792;DHT22;4432;50.890;4.744;2023-04-25T02:52:10;7.70;99.90
8792;DHT22;4432;50.890;4.744;2023-04-25T02:54:37;7.70;99.90
8792;DHT22;4432;50.890;4.744;2023-04-25T02:57:03;7.70;99.90
8792;DHT22;4432;50.890;4.744;2023-04-25T02:59:28;7.70;99.90
8792;DHT22;4432;50.890;4.744;2023-04-25T03:01:54;7.80;99.90
8792;DHT22;4432;50.890;4.744;2023-04-25T03:04:20;7.70;99.90
8792;DHT22;4432;50.890;4.744;2023-04-25T03:06:49;7.70;99.90
8792;DHT22;4432;50.890;4.744;2023-04-25T03:09:15;7.70;99.90
8792;DHT22;4432;50.890;4.744;2023-04-25T03:11:41;7.70;99.90
8792;DHT22;4432;50.890;4.744;2023-04-25T03:14:07;7.70;99.90
8792;DHT22;4432;50.890;4.744;2023-04-25T03:16:33;7.70;99.90
8792;DHT22;4432;50.890;4.744;2023-04-25T03:18:59;7.70;99.90
8792;DHT22;4432;50.890;4.744;2023-04-25T03:21:25;7.70;99.90
8792;DHT22;4432;50.890;4.744;2023-04-25T03:23:52;7.70;99.90
8792;DHT22;4432;50.890;4.744;2023-04-25T03:26:17;7.70;99.90
8792;DHT22;4432;50.890;4.744;2023-04-25T03:28:43;7.70;99.90
8792;DHT22;4432;50.890;4.744;2023-04-25T03:31:09;7.70;99.90
8792;DHT22;4432;50.890;4.744;2023-04-25T03:33:35;7.60;99.90
8792;DHT22;4432;50.890;4.744;2023-04-25T03:36:00;7.60;99.90
8792;DHT22;4432;50.890;4.744;2023-04-25T03:38:26;7.50;99.90
8792;DHT22;4432;50.890;4.744;2023-04-25T03:40:52;7.50;99.90
8792;DHT22;4432;50.890;4.744;2023-04-25T03:43:18;7.50;99.90
8792;DHT22;4432;50.890;4.744;2023-04-25T03:45:44;7.60;99.90
8792;DHT22;4432;50.890;4.744;2023-04-25T03:48:11;7.50;99.90
8792;DHT22;4432;50.890;4.744;2023-04-25T03:50:37;7.40;99.90
8792;DHT22;4432;50.890;4.744;2023-04-25T03:53:03;7.20;99.90
8792;DHT22;4432;50.890;4.744;2023-04-25T03:55:28;7.20;99.90
8792;DHT22;4432;50.890;4.744;2023-04-25T03:57:54;7.10;99.90
8792;DHT22;4432;50.890;4.744;2023-04-25T04:00:20;7.10;99.90
8792;DHT22;4432;50.890;4.744;2023-04-25T04:02:46;7.10;99.90
8792;DHT22;4432;50.890;4.744;2023-04-25T04:05:11;7.00;99.90
8792;DHT22;4432;50.890;4.744;2023-04-25T04:07:38;7.00;99.90
8792;DHT22;4432;50.890;4.744;2023-04-25T04:10:12;7.00;99.90
8792;DHT22;4432;50.890;4.744;2023-04-25T04:12:38;6.90;99.90
8792;DHT22;4432;50.890;4.744;2023-04-25T04:15:04;6.90;99.90
8792;DHT22;4432;50.890;4.744;2023-04-25T04:17:31;6.90;99.90
8792;DHT22;4432;50.890;4.744;2023-04-25T04:19:57;6.90;99.90
8792;DHT22;4432;50.890;4.744;2023-04-25T04:22:24;6.90;99.90
8792;DHT22;4432;50.890;4.744;2023-04-25T04:24:50;6.90;99.90
8792;DHT22;4432;50.890;4.744;2023-04-25T04:27:18;6.90;99.90
8792;DHT22;4432;50.890;4.744;2023-04-25T04:29:45;6.90;99.90
8792;DHT22;4432;50.890;4.744;2023-04-25T04:32:12;6.90;99.90
8792;DHT22;4432;50.890;4.744;2023-04-25T04:34:38;6.90;99.90
8792;DHT22;4432;50.890;4.744;2023-04-25T04:37:05;6.90;99.90
8792;DHT22;4432;50.890;4.744;2023-04-25T04:39:33;6.90;99.90
8792;DHT22;4432;50.890;4.744;2023-04-25T04:41:59;6.90;99.90
8792;DHT22;4432;50.890;4.744;2023-04-25T04:44:27;7.00;99.90
8792;DHT22;4432;50.890;4.744;2023-04-25T04:46:54;7.00;99.90
8792;DHT22;4432;50.890;4.744;2023-04-25T04:49:21;6.90;99.90
8792;DHT22;4432;50.890;4.744;2023-04-25T04:51:46;6.90;99.90
8792;DHT22;4432;50.890;4.744;2023-04-25T04:54:13;6.80;99.90
8792;DHT22;4432;50.890;4.744;2023-04-25T04:56:39;6.80;99.90
8792;DHT22;4432;50.890;4.744;2023-04-25T04:59:04;6.80;99.90
8792;DHT22;4432;50.890;4.744;2023-04-25T05:01:30;6.80;99.90
8792;DHT22;4432;50.890;4.744;2023-04-25T05:03:57;6.80;99.90
8792;DHT22;4432;50.890;4.744;2023-04-25T05:06:27;6.80;99.90
8792;DHT22;4432;50.890;4.744;2023-04-25T05:08:54;6.80;99.90
8792;DHT22;4432;50.890;4.744;2023-04-25T05:11:20;6.80;99.90
8792;DHT22;4432;50.890;4.744;2023-04-25T05:13:46;6.80;99.90
8792;DHT22;4432;50.890;4.744;2023-04-25T05:16:12;6.90;99.90
8792;DHT22;4432;50.890;4.744;2023-04-25T05:18:39;6.80;99.90
8792;DHT22;4432;50.890;4.744;2023-04-25T05:21:05;6.90;99.90
8792;DHT22;4432;50.890;4.744;2023-04-25T05:23:32;6.90;99.90
8792;DHT22;4432;50.890;4.744;2023-04-25T05:25:58;6.90;99.90
8792;DHT22;4432;50.890;4.744;2023-04-25T05:28:23;6.90;99.90
8792;DHT22;4432;50.890;4.744;2023-04-25T05:30:49;6.90;99.90
8792;DHT22;4432;50.890;4.744;2023-04-25T05:33:16;6.90;99.90
8792;DHT22;4432;50.890;4.744;2023-04-25T05:35:42;7.00;99.90
8792;DHT22;4432;50.890;4.744;2023-04-25T05:38:07;7.00;99.90
8792;DHT22;4432;50.890;4.744;2023-04-25T05:40:33;7.00;99.90
8792;DHT22;4432;50.890;4.744;2023-04-25T05:42:59;6.90;99.90
8792;DHT22;4432;50.890;4.744;2023-04-25T05:45:25;7.00;99.90
8792;DHT22;4432;50.890;4.744;2023-04-25T05:47:51;7.00;99.90
8792;DHT22;4432;50.890;4.744;2023-04-25T05:50:16;7.00;99.90
8792;DHT22;4432;50.890;4.744;2023-04-25T05:52:42;7.10;99.90
8792;DHT22;4432;50.890;4.744;2023-04-25T05:55:08;7.10;99.90
8792;DHT22;4432;50.890;4.744;2023-04-25T05:57:34;7.10;99.90
8792;DHT22;4432;50.890;4.744;2023-04-25T06:00:00;7.20;99.90
8792;DHT22;4432;50.890;4.744;2023-04-25T06:02:26;7.20;99.90
8792;DHT22;4432;50.890;4.744;2023-04-25T06:04:52;7.20;99.90
8792;DHT22;4432;50.890;4.744;2023-04-25T06:07:19;7.20;99.90
8792;DHT22;4432;50.890;4.744;2023-04-25T06:09:45;7.20;99.90
8792;DHT22;4432;50.890;4.744;2023-04-25T06:12:11;7.20;99.90
8792;DHT22;4432;50.890;4.744;2023-04-25T06:14:37;7.20;99.90
8792;DHT22;4432;50.890;4.744;2023-04-25T06:17:03;7.30;99.90
8792;DHT22;4432;50.890;4.744;2023-04-25T06:19:37;7.30;99.90
8792;DHT22;4432;50.890;4.744;2023-04-25T06:22:02;7.40;99.90
8792;DHT22;4432;50.890;4.744;2023-04-25T06:24:28;7.50;99.90
8792;DHT22;4432;50.890;4.744;2023-04-25T06:26:54;7.60;99.90
8792;DHT22;4432;50.890;4.744;2023-04-25T06:29:20;7.70;99.90
8792;DHT22;4432;50.890;4.744;2023-04-25T06:31:46;7.90;99.90
8792;DHT22;4432;50.890;4.744;2023-04-25T06:34:12;8.00;99.90
8792;DHT22;4432;50.890;4.744;2023-04-25T06:36:38;8.10;99.90
8792;DHT22;4432;50.890;4.744;2023-04-25T06:39:04;8.20;99.90
8792;DHT22;4432;50.890;4.744;2023-04-25T06:41:30;8.20;99.90
8792;DHT22;4432;50.890;4.744;2023-04-25T06:43:56;8.30;99.90
8792;DHT22;4432;50.890;4.744;2023-04-25T06:46:21;8.30;99.90
8792;DHT22;4432;50.890;4.744;2023-04-25T06:48:47;8.40;99.90
8792;DHT22;4432;50.890;4.744;2023-04-25T06:51:13;8.50;99.90
8792;DHT22;4432;50.890;4.744;2023-04-25T06:53:39;8.60;99.90
8792;DHT22;4432;50.890;4.744;2023-04-25T06:56:05;8.60;99.90
8792;DHT22;4432;50.890;4.744;2023-04-25T06:58:31;8.70;99.90
8792;DHT22;4432;50.890;4.744;2023-04-25T07:00:57;8.80;99.90
8792;DHT22;4432;50.890;4.744;2023-04-25T07:03:23;8.80;99.90
8792;DHT22;4432;50.890;4.744;2023-04-25T07:05:50;8.90;99.90
8792;DHT22;4432;50.890;4.744;2023-04-25T07:08:16;8.90;99.90
8792;DHT22;4432;50.890;4.744;2023-04-25T07:10:42;8.80;99.90
8792;DHT22;4432;50.890;4.744;2023-04-25T07:13:08;8.80;99.90
8792;DHT22;4432;50.890;4.744;2023-04-25T07:15:36;8.70;99.90
8792;DHT22;4432;50.890;4.744;2023-04-25T07:18:02;8.80;99.90
8792;DHT22;4432;50.890;4.744;2023-04-25T07:20:28;8.90;99.90
8792;DHT22;4432;50.890;4.744;2023-04-25T07:22:56;8.90;99.90
8792;DHT22;4432;50.890;4.744;2023-04-25T07:25:22;9.10;99.90
8792;DHT22;4432;50.890;4.744;2023-04-25T07:27:48;9.20;99.90
8792;DHT22;4432;50.890;4.744;2023-04-25T07:30:14;9.30;99.90
8792;DHT22;4432;50.890;4.744;2023-04-25T07:32:40;9.40;99.90
8792;DHT22;4432;50.890;4.744;2023-04-25T07:35:06;9.50;99.90
8792;DHT22;4432;50.890;4.744;2023-04-25T07:37:36;9.60;99.90
8792;DHT22;4432;50.890;4.744;2023-04-25T07:40:03;9.70;99.90
8792;DHT22;4432;50.890;4.744;2023-04-25T07:42:30;9.80;99.90
8792;DHT22;4432;50.890;4.744;2023-04-25T07:44:56;9.90;99.90
8792;DHT22;4432;50.890;4.744;2023-04-25T07:47:21;9.90;99.90
8792;DHT22;4432;50.890;4.744;2023-04-25T07:49:47;10.10;99.90
8792;DHT22;4432;50.890;4.744;2023-04-25T07:52:13;10.20;99.90
8792;DHT22;4432;50.890;4.744;2023-04-25T07:54:39;10.30;99.90
8792;DHT22;4432;50.890;4.744;2023-04-25T07:57:05;10.40;99.90
8792;DHT22;4432;50.890;4.744;2023-04-25T07:59:32;10.40;99.90
8792;DHT22;4432;50.890;4.744;2023-04-25T08:01:58;10.50;99.90
8792;DHT22;4432;50.890;4.744;2023-04-25T08:04:24;10.70;99.90
8792;DHT22;4432;50.890;4.744;2023-04-25T08:06:51;10.60;99.90
8792;DHT22;4432;50.890;4.744;2023-04-25T08:09:18;10.40;99.90
8792;DHT22;4432;50.890;4.744;2023-04-25T08:11:43;10.20;99.90
8792;DHT22;4432;50.890;4.744;2023-04-25T08:14:11;10.10;99.90
8792;DHT22;4432;50.890;4.744;2023-04-25T08:16:37;10.00;99.90
8792;DHT22;4432;50.890;4.744;2023-04-25T08:19:02;10.00;99.90
8792;DHT22;4432;50.890;4.744;2023-04-25T08:21:28;10.20;99.90
8792;DHT22;4432;50.890;4.744;2023-04-25T08:23:54;10.20;99.90
8792;DHT22;4432;50.890;4.744;2023-04-25T08:26:20;10.10;99.90
8792;DHT22;4432;50.890;4.744;2023-04-25T08:28:46;9.80;99.90
8792;DHT22;4432;50.890;4.744;2023-04-25T08:31:12;9.60;99.90
8792;DHT22;4432;50.890;4.744;2023-04-25T08:33:38;9.40;99.90
8792;DHT22;4432;50.890;4.744;2023-04-25T08:36:04;9.30;99.90
8792;DHT22;4432;50.890;4.744;2023-04-25T08:38:29;9.30;99.90
8792;DHT22;4432;50.890;4.744;2023-04-25T08:40:57;9.30;99.90
8792;DHT22;4432;50.890;4.744;2023-04-25T08:43:25;9.20;99.90
8792;DHT22;4432;50.890;4.744;2023-04-25T08:45:53;9.10;99.90
8792;DHT22;4432;50.890;4.744;2023-04-25T08:48:23;9.20;99.90
8792;DHT22;4432;50.890;4.744;2023-04-25T08:50:51;9.30;99.90
8792;DHT22;4432;50.890;4.744;2023-04-25T08:53:29;9.40;99.90
8792;DHT22;4432;50.890;4.744;2023-04-25T08:55:56;9.50;99.90
8792;DHT22;4432;50.890;4.744;2023-04-25T08:58:22;9.80;99.90
8792;DHT22;4432;50.890;4.744;2023-04-25T09:00:49;10.00;99.90
8792;DHT22;4432;50.890;4.744;2023-04-25T09:03:16;10.10;99.90
8792;DHT22;4432;50.890;4.744;2023-04-25T09:05:42;10.20;99.90
8792;DHT22;4432;50.890;4.744;2023-04-25T09:08:07;10.60;99.90
8792;DHT22;4432;50.890;4.744;2023-04-25T09:10:34;10.60;99.90
8792;DHT22;4432;50.890;4.744;2023-04-25T09:13:05;10.70;99.90
8792;DHT22;4432;50.890;4.744;2023-04-25T09:15:32;11.50;99.90
8792;DHT22;4432;50.890;4.744;2023-04-25T09:17:59;12.80;99.90
8792;DHT22;4432;50.890;4.744;2023-04-25T09:20:25;14.00;99.90
8792;DHT22;4432;50.890;4.744;2023-04-25T09:23:04;14.80;99.90
8792;DHT22;4432;50.890;4.744;2023-04-25T09:25:36;15.20;95.90
8792;DHT22;4432;50.890;4.744;2023-04-25T09:28:06;14.50;97.00
8792;DHT22;4432;50.890;4.744;2023-04-25T09:30:34;13.40;99.80
8792;DHT22;4432;50.890;4.744;2023-04-25T09:33:07;12.60;99.90
8792;DHT22;4432;50.890;4.744;2023-04-25T09:38:11;11.50;99.90
8792;DHT22;4432;50.890;4.744;2023-04-25T09:40:45;11.10;99.90
8792;DHT22;4432;50.890;4.744;2023-04-25T09:43:22;10.70;99.90
8792;DHT22;4432;50.890;4.744;2023-04-25T09:45:48;10.50;99.90
8792;DHT22;4432;50.890;4.744;2023-04-25T09:48:19;10.50;99.90
8792;DHT22;4432;50.890;4.744;2023-04-25T09:50:47;10.50;99.90
8792;DHT22;4432;50.890;4.744;2023-04-25T09:53:29;10.50;99.90
8792;DHT22;4432;50.890;4.744;2023-04-25T09:55:55;10.60;99.90
8792;DHT22;4432;50.890;4.744;2023-04-25T09:58:24;10.60;99.90
8792;DHT22;4432;50.890;4.744;2023-04-25T10:00:53;10.50;99.90
8792;DHT22;4432;50.890;4.744;2023-04-25T10:03:22;10.50;99.90
8792;DHT22;4432;50.890;4.744;2023-04-25T10:05:48;10.40;99.90
8792;DHT22;4432;50.890;4.744;2023-04-25T10:08:15;10.40;99.90
8792;DHT22;4432;50.890;4.744;2023-04-25T10:10:42;10.40;99.90
8792;DHT22;4432;50.890;4.744;2023-04-25T10:13:08;10.60;99.90
8792;DHT22;4432;50.890;4.744;2023-04-25T10:15:35;10.90;99.90
8792;DHT22;4432;50.890;4.744;2023-04-25T10:18:05;11.00;99.90
8792;DHT22;4432;50.890;4.744;2023-04-25T10:20:32;11.50;99.90
8792;DHT22;4432;50.890;4.744;2023-04-25T10:23:08;11.80;99.90
8792;DHT22;4432;50.890;4.744;2023-04-25T10:25:36;12.00;99.90
8792;DHT22;4432;50.890;4.744;2023-04-25T10:28:03;12.10;99.90
8792;DHT22;4432;50.890;4.744;2023-04-25T10:30:29;12.10;99.90
8792;DHT22;4432;50.890;4.744;2023-04-25T10:32:55;12.30;99.50
8792;DHT22;4432;50.890;4.744;2023-04-25T10:35:27;12.80;96.60
8792;DHT22;4432;50.890;4.744;2023-04-25T10:40:23;12.20;99.20
8792;DHT22;4432;50.890;4.744;2023-04-25T10:42:49;12.20;96.90
8792;DHT22;4432;50.890;4.744;2023-04-25T10:45:16;12.30;97.40
8792;DHT22;4432;50.890;4.744;2023-04-25T10:47:45;12.20;93.90
8792;DHT22;4432;50.890;4.744;2023-04-25T10:50:12;12.10;93.70
8792;DHT22;4432;50.890;4.744;2023-04-25T10:52:40;12.20;94.00
8792;DHT22;4432;50.890;4.744;2023-04-25T10:55:06;12.30;95.30
8792;DHT22;4432;50.890;4.744;2023-04-25T10:57:43;12.70;97.70
8792;DHT22;4432;50.890;4.744;2023-04-25T11:00:17;13.50;89.50
8792;DHT22;4432;50.890;4.744;2023-04-25T11:05:15;13.70;91.20
8792;DHT22;4432;50.890;4.744;2023-04-25T11:07:50;14.30;88.20
8792;DHT22;4432;50.890;4.744;2023-04-25T11:10:17;14.00;81.10
8792;DHT22;4432;50.890;4.744;2023-04-25T11:12:45;13.30;84.00
8792;DHT22;4432;50.890;4.744;2023-04-25T11:15:11;12.80;88.20
8792;DHT22;4432;50.890;4.744;2023-04-25T11:17:37;12.60;90.90
8792;DHT22;4432;50.890;4.744;2023-04-25T11:20:06;12.50;92.40
8792;DHT22;4432;50.890;4.744;2023-04-25T11:22:34;12.50;92.90
8792;DHT22;4432;50.890;4.744;2023-04-25T11:25:05;12.40;93.90
8792;DHT22;4432;50.890;4.744;2023-04-25T11:27:31;12.50;93.00
8792;DHT22;4432;50.890;4.744;2023-04-25T11:29:56;12.60;94.10
8792;DHT22;4432;50.890;4.744;2023-04-25T11:32:23;12.60;95.30
8792;DHT22;4432;50.890;4.744;2023-04-25T11:34:48;12.60;94.60
8792;DHT22;4432;50.890;4.744;2023-04-25T11:37:15;12.70;92.90
8792;DHT22;4432;50.890;4.744;2023-04-25T11:39:47;12.80;93.10
8792;DHT22;4432;50.890;4.744;2023-04-25T11:42:13;12.80;94.50
8792;DHT22;4432;50.890;4.744;2023-04-25T11:44:39;12.90;94.20
8792;DHT22;4432;50.890;4.744;2023-04-25T11:47:06;13.30;92.80
8792;DHT22;4432;50.890;4.744;2023-04-25T11:49:32;13.50;90.40
8792;DHT22;4432;50.890;4.744;2023-04-25T11:51:57;13.50;85.70
8792;DHT22;4432;50.890;4.744;2023-04-25T11:54:23;13.50;82.50
8792;DHT22;4432;50.890;4.744;2023-04-25T11:56:49;13.40;87.80
8792;DHT22;4432;50.890;4.744;2023-04-25T11:59:14;13.10;87.00
8792;DHT22;4432;50.890;4.744;2023-04-25T12:01:48;12.70;89.50
8792;DHT22;4432;50.890;4.744;2023-04-25T12:04:20;12.60;90.10
8792;DHT22;4432;50.890;4.744;2023-04-25T12:06:47;12.50;91.10
8792;DHT22;4432;50.890;4.744;2023-04-25T12:09:14;12.30;93.00
8792;DHT22;4432;50.890;4.744;2023-04-25T12:11:45;12.20;94.60
8792;DHT22;4432;50.890;4.744;2023-04-25T12:14:12;11.80;95.40
8792;DHT22;4432;50.890;4.744;2023-04-25T12:16:46;11.70;95.50
8792;DHT22;4432;50.890;4.744;2023-04-25T12:19:16;11.80;96.30
8792;DHT22;4432;50.890;4.744;2023-04-25T12:21:43;12.10;95.50
8792;DHT22;4432;50.890;4.744;2023-04-25T12:24:14;12.30;95.10
8792;DHT22;4432;50.890;4.744;2023-04-25T12:27:21;12.50;92.60
8792;DHT22;4432;50.890;4.744;2023-04-25T12:29:53;12.80;92.40
8792;DHT22;4432;50.890;4.744;2023-04-25T12:32:19;13.20;91.50
8792;DHT22;4432;50.890;4.744;2023-04-25T12:34:45;13.60;87.30
8792;DHT22;4432;50.890;4.744;2023-04-25T12:37:11;13.60;90.60
8792;DHT22;4432;50.890;4.744;2023-04-25T12:39:37;13.60;90.10
8792;DHT22;4432;50.890;4.744;2023-04-25T12:42:03;14.00;90.30
8792;DHT22;4432;50.890;4.744;2023-04-25T12:44:29;14.30;90.90
8792;DHT22;4432;50.890;4.744;2023-04-25T12:46:55;14.50;83.00
8792;DHT22;4432;50.890;4.744;2023-04-25T12:49:20;14.30;79.60
8792;DHT22;4432;50.890;4.744;2023-04-25T12:51:46;13.80;65.50
8792;DHT22;4432;50.890;4.744;2023-04-25T12:54:12;13.70;75.30
8792;DHT22;4432;50.890;4.744;2023-04-25T12:56:40;13.90;73.70
8792;DHT22;4432;50.890;4.744;2023-04-25T12:59:06;14.30;63.70
8792;DHT22;4432;50.890;4.744;2023-04-25T13:01:32;14.20;65.50
8792;DHT22;4432;50.890;4.744;2023-04-25T13:03:58;13.80;65.40
8792;DHT22;4432;50.890;4.744;2023-04-25T13:06:24;13.60;69.40
8792;DHT22;4432;50.890;4.744;2023-04-25T13:08:49;13.10;75.40
8792;DHT22;4432;50.890;4.744;2023-04-25T13:11:15;12.80;73.10
8792;DHT22;4432;50.890;4.744;2023-04-25T13:13:41;12.70;69.70
8792;DHT22;4432;50.890;4.744;2023-04-25T13:16:08;12.50;72.40
8792;DHT22;4432;50.890;4.744;2023-04-25T13:18:34;12.50;71.80
8792;DHT22;4432;50.890;4.744;2023-04-25T13:21:00;12.50;75.30
8792;DHT22;4432;50.890;4.744;2023-04-25T13:23:27;12.60;79.00
8792;DHT22;4432;50.890;4.744;2023-04-25T13:25:53;12.60;83.00
8792;DHT22;4432;50.890;4.744;2023-04-25T13:28:20;12.70;83.40
8792;DHT22;4432;50.890;4.744;2023-04-25T13:30:46;13.00;85.60
8792;DHT22;4432;50.890;4.744;2023-04-25T13:33:14;13.30;82.30
8792;DHT22;4432;50.890;4.744;2023-04-25T13:35:40;13.50;80.20
8792;DHT22;4432;50.890;4.744;2023-04-25T13:38:06;13.20;75.50
8792;DHT22;4432;50.890;4.744;2023-04-25T13:40:32;13.10;78.20
8792;DHT22;4432;50.890;4.744;2023-04-25T13:42:59;13.20;80.60
8792;DHT22;4432;50.890;4.744;2023-04-25T13:45:25;13.40;75.40
8792;DHT22;4432;50.890;4.744;2023-04-25T13:47:51;13.00;72.20
8792;DHT22;4432;50.890;4.744;2023-04-25T13:50:17;12.60;78.90
8792;DHT22;4432;50.890;4.744;2023-04-25T13:52:43;12.90;81.20
8792;DHT22;4432;50.890;4.744;2023-04-25T13:55:09;13.30;72.00
8792;DHT22;4432;50.890;4.744;2023-04-25T13:57:35;13.40;72.40
8792;DHT22;4432;50.890;4.744;2023-04-25T14:00:02;13.20;71.70
8792;DHT22;4432;50.890;4.744;2023-04-25T14:02:32;13.20;73.80
8792;DHT22;4432;50.890;4.744;2023-04-25T14:04:58;13.30;76.80
8792;DHT22;4432;50.890;4.744;2023-04-25T14:07:23;13.20;75.90
8792;DHT22;4432;50.890;4.744;2023-04-25T14:09:50;13.00;74.80
8792;DHT22;4432;50.890;4.744;2023-04-25T14:12:15;12.50;70.40
8792;DHT22;4432;50.890;4.744;2023-04-25T14:14:41;12.30;74.60
8792;DHT22;4432;50.890;4.744;2023-04-25T14:17:08;12.20;68.20
8792;DHT22;4432;50.890;4.744;2023-04-25T14:19:34;12.10;69.10
8792;DHT22;4432;50.890;4.744;2023-04-25T14:22:00;12.10;71.30
8792;DHT22;4432;50.890;4.744;2023-04-25T14:24:26;12.10;69.70
8792;DHT22;4432;50.890;4.744;2023-04-25T14:26:51;12.20;68.20
8792;DHT22;4432;50.890;4.744;2023-04-25T14:29:17;12.30;69.70
8792;DHT22;4432;50.890;4.744;2023-04-25T14:31:43;12.30;75.00
8792;DHT22;4432;50.890;4.744;2023-04-25T14:34:10;12.20;76.20
8792;DHT22;4432;50.890;4.744;2023-04-25T14:36:36;11.90;74.10
8792;DHT22;4432;50.890;4.744;2023-04-25T14:39:03;11.60;76.00
8792;DHT22;4432;50.890;4.744;2023-04-25T14:41:30;11.40;77.10
8792;DHT22;4432;50.890;4.744;2023-04-25T14:43:56;11.50;78.80
8792;DHT22;4432;50.890;4.744;2023-04-25T14:46:22;11.70;77.90
8792;DHT22;4432;50.890;4.744;2023-04-25T14:48:49;11.90;77.60
8792;DHT22;4432;50.890;4.744;2023-04-25T14:51:14;12.00;74.30
8792;DHT22;4432;50.890;4.744;2023-04-25T14:53:41;12.10;73.80
8792;DHT22;4432;50.890;4.744;2023-04-25T14:56:07;12.20;74.50
8792;DHT22;4432;50.890;4.744;2023-04-25T14:58:33;12.40;72.20
8792;DHT22;4432;50.890;4.744;2023-04-25T15:00:59;12.50;71.30
8792;DHT22;4432;50.890;4.744;2023-04-25T15:03:25;12.60;69.70
8792;DHT22;4432;50.890;4.744;2023-04-25T15:05:53;12.70;74.30
8792;DHT22;4432;50.890;4.744;2023-04-25T15:08:20;12.70;74.90
8792;DHT22;4432;50.890;4.744;2023-04-25T15:10:46;12.60;72.80
8792;DHT22;4432;50.890;4.744;2023-04-25T15:13:12;12.40;74.90
8792;DHT22;4432;50.890;4.744;2023-04-25T15:15:39;12.40;76.40
8792;DHT22;4432;50.890;4.744;2023-04-25T15:18:05;12.30;75.70
8792;DHT22;4432;50.890;4.744;2023-04-25T15:20:31;12.30;76.10
8792;DHT22;4432;50.890;4.744;2023-04-25T15:22:57;12.30;74.60
8792;DHT22;4432;50.890;4.744;2023-04-25T15:25:23;12.20;76.30
8792;DHT22;4432;50.890;4.744;2023-04-25T15:27:49;12.00;77.80
8792;DHT22;4432;50.890;4.744;2023-04-25T15:30:17;11.80;76.70
8792;DHT22;4432;50.890;4.744;2023-04-25T15:32:44;11.70;73.60
8792;DHT22;4432;50.890;4.744;2023-04-25T15:35:10;11.60;76.00
8792;DHT22;4432;50.890;4.744;2023-04-25T15:37:37;11.70;79.20
8792;DHT22;4432;50.890;4.744;2023-04-25T15:40:08;11.80;78.80
8792;DHT22;4432;50.890;4.744;2023-04-25T15:43:00;11.90;78.90
8792;DHT22;4432;50.890;4.744;2023-04-25T15:45:26;11.80;74.20
8792;DHT22;4432;50.890;4.744;2023-04-25T15:47:55;11.70;75.00
8792;DHT22;4432;50.890;4.744;2023-04-25T15:50:21;11.50;75.00
8792;DHT22;4432;50.890;4.744;2023-04-25T15:52:48;11.50;78.40
8792;DHT22;4432;50.890;4.744;2023-04-25T15:55:14;11.50;78.50
8792;DHT22;4432;50.890;4.744;2023-04-25T15:57:42;11.40;79.70
8792;DHT22;4432;50.890;4.744;2023-04-25T16:00:09;11.30;79.00
8792;DHT22;4432;50.890;4.744;2023-04-25T16:02:40;11.30;81.30
8792;DHT22;4432;50.890;4.744;2023-04-25T16:05:07;11.30;81.20
8792;DHT22;4432;50.890;4.744;2023-04-25T16:07:33;11.30;77.80
8792;DHT22;4432;50.890;4.744;2023-04-25T16:09:59;11.30;76.20
8792;DHT22;4432;50.890;4.744;2023-04-25T16:12:25;11.30;78.10
8792;DHT22;4432;50.890;4.744;2023-04-25T16:14:53;11.30;78.40